Time;durP1;ratioP1;P1;durP2;ratioP2;P2;SDS_P1;SDS_P2;PMS_P1;PMS_P2;Temp;Humidity;BMP_temperature;BMP_pressure;BME280_temperature;BME280_humidity;BME280_pressure;Samples;Min_cycle;Max_cycle;Signal;HPM_P1;HPM_P2
2022/03/16 00:00:01;;;;;;;27.70;15.53;;;1.60;99.90;;;;;;5055944;28;20610;-71
2022/03/16 00:02:27;;;;;;;25.33;15.03;;;1.50;99.90;;;;;;5059554;28;20178;-70
2022/03/16 00:04:54;;;;;;;26.50;15.87;;;1.60;99.90;;;;;;5059752;28;20635;-71
2022/03/16 00:07:22;;;;;;;34.13;18.40;;;1.50;99.90;;;;;;5060586;28;20539;-72
2022/03/16 00:09:47;;;;;;;35.17;18.20;;;1.70;99.90;;;;;;5063587;28;20188;-71
2022/03/16 00:18:05;;;;;;;27.40;16.37;;;2.00;99.90;;;;;;5076866;22;20233;-81
2022/03/16 00:20:30;;;;;;;23.93;15.53;;;2.00;99.90;;;;;;5074038;28;20275;-79
2022/03/16 00:22:56;;;;;;;25.90;15.63;;;1.90;99.90;;;;;;5097509;28;20212;-82
2022/03/16 00:25:23;;;;;;;32.70;16.47;;;2.20;99.90;;;;;;5090539;28;20225;-79
2022/03/16 00:27:49;;;;;;;47.43;16.70;;;2.20;99.90;;;;;;5088268;28;20180;-79
2022/03/16 00:30:15;;;;;;;37.23;16.50;;;2.40;99.90;;;;;;5090664;28;20599;-83
2022/03/16 00:32:40;;;;;;;38.83;16.10;;;2.40;99.90;;;;;;5101135;28;20204;-82
2022/03/16 00:35:06;;;;;;;33.27;17.30;;;2.30;99.90;;;;;;5090268;28;20302;-82
2022/03/16 00:37:32;;;;;;;28.47;15.53;;;2.30;99.90;;;;;;5089723;28;20180;-83
2022/03/16 00:39:58;;;;;;;43.90;15.83;;;2.30;99.90;;;;;;5089486;28;20168;-79
2022/03/16 00:42:24;;;;;;;40.60;15.27;;;2.20;99.90;;;;;;5089940;28;20222;-82
2022/03/16 00:44:49;;;;;;;29.77;14.93;;;2.10;99.90;;;;;;5100560;28;20689;-81
2022/03/16 00:47:15;;;;;;;66.57;16.37;;;2.10;99.90;;;;;;5100810;28;20210;-81
2022/03/16 00:49:41;;;;;;;44.93;15.50;;;2.20;99.90;;;;;;5089978;28;20261;-83
2022/03/16 00:52:08;;;;;;;34.07;14.90;;;2.10;99.90;;;;;;5100774;28;20208;-82
2022/03/16 00:54:33;;;;;;;67.03;17.73;;;2.10;99.90;;;;;;5088176;28;20603;-80
2022/03/16 00:56:59;;;;;;;50.00;16.77;;;2.10;99.90;;;;;;5089579;28;20290;-80
2022/03/16 00:59:24;;;;;;;36.83;15.97;;;2.10;99.90;;;;;;5087900;28;20192;-80
2022/03/16 01:01:50;;;;;;;38.30;15.73;;;2.10;99.90;;;;;;5089525;28;20274;-81
2022/03/16 01:04:16;;;;;;;37.97;16.40;;;2.10;99.90;;;;;;5085225;28;20598;-83
2022/03/16 01:06:42;;;;;;;46.40;14.87;;;2.20;99.90;;;;;;5085093;28;20192;-81
2022/03/16 01:09:07;;;;;;;29.07;14.07;;;2.20;99.90;;;;;;5087343;28;20183;-84
2022/03/16 01:11:33;;;;;;;55.37;14.40;;;2.20;99.90;;;;;;5097541;28;20684;-80
2022/03/16 01:13:59;;;;;;;34.40;13.47;;;2.30;99.90;;;;;;5084915;28;20231;-79
2022/03/16 01:16:25;;;;;;;31.13;12.67;;;2.30;99.90;;;;;;5086312;28;20196;-81
2022/03/16 01:18:50;;;;;;;26.50;11.07;;;2.30;99.90;;;;;;5083960;28;20657;-83
2022/03/16 01:21:16;;;;;;;35.03;12.70;;;2.20;99.90;;;;;;5085667;28;20188;-81
2022/03/16 01:23:42;;;;;;;33.03;12.37;;;2.20;99.90;;;;;;5100092;28;20219;-79
2022/03/16 01:26:07;;;;;;;28.97;13.17;;;2.10;99.90;;;;;;5102331;28;20192;-79
2022/03/16 01:28:33;;;;;;;29.93;12.83;;;2.00;99.90;;;;;;5098148;28;20206;-78
2022/03/16 01:31:01;;;;;;;28.13;11.70;;;2.00;99.90;;;;;;5087725;28;20214;-79
2022/03/16 01:33:27;;;;;;;19.00;11.97;;;1.90;99.90;;;;;;5098107;28;20223;-79
2022/03/16 01:35:53;;;;;;;24.43;12.23;;;1.90;99.90;;;;;;5089504;28;20196;-81
2022/03/16 01:38:18;;;;;;;17.43;11.80;;;1.90;99.90;;;;;;5088567;28;20923;-81
2022/03/16 01:40:45;;;;;;;18.87;12.03;;;1.90;99.90;;;;;;5098821;28;20270;-82
2022/03/16 01:43:10;;;;;;;17.60;12.23;;;2.00;99.90;;;;;;5086672;28;20253;-80
2022/03/16 01:45:36;;;;;;;21.30;12.47;;;2.00;99.90;;;;;;5088450;28;20549;-80
2022/03/16 01:48:02;;;;;;;18.53;11.93;;;2.00;99.90;;;;;;5099774;28;20217;-80
2022/03/16 01:50:27;;;;;;;22.47;11.80;;;1.90;99.90;;;;;;5088844;28;21130;-81
2022/03/16 01:52:53;;;;;;;30.67;12.30;;;2.00;99.90;;;;;;5087990;28;20229;-81
2022/03/16 01:55:19;;;;;;;28.90;12.30;;;2.00;99.90;;;;;;5089305;28;20258;-80
2022/03/16 01:57:48;;;;;;;33.13;12.97;;;1.90;99.90;;;;;;5097956;28;20185;-80
2022/03/16 02:00:14;;;;;;;31.17;12.43;;;1.90;99.90;;;;;;5087197;28;20264;-82
2022/03/16 02:02:40;;;;;;;32.77;12.73;;;1.90;99.90;;;;;;5099078;28;20204;-81
2022/03/16 02:05:06;;;;;;;16.97;10.30;;;2.00;99.90;;;;;;5099876;28;20188;-79
2022/03/16 02:07:31;;;;;;;25.83;11.40;;;2.00;99.90;;;;;;5089088;28;20666;-80
2022/03/16 02:10:00;;;;;;;32.60;11.50;;;1.90;99.90;;;;;;5100658;28;20180;-82
2022/03/16 02:12:26;;;;;;;26.10;10.07;;;1.80;99.90;;;;;;5099213;28;20193;-80
2022/03/16 02:14:51;;;;;;;23.63;10.37;;;1.70;99.90;;;;;;5101770;28;20815;-80
2022/03/16 02:17:17;;;;;;;21.43;10.50;;;1.70;99.90;;;;;;5089673;28;20223;-81
2022/03/16 02:19:43;;;;;;;23.13;10.30;;;1.60;99.90;;;;;;5087684;28;20192;-80
2022/03/16 02:22:13;;;;;;;21.80;10.60;;;1.50;99.90;;;;;;5099782;28;20201;-79
2022/03/16 02:24:39;;;;;;;17.23;10.87;;;1.50;99.90;;;;;;5093297;28;20205;-81
2022/03/16 02:27:05;;;;;;;28.20;11.43;;;1.50;99.90;;;;;;5104702;28;20202;-80
2022/03/16 02:29:31;;;;;;;16.37;10.80;;;1.50;99.90;;;;;;5094224;28;20180;-79
2022/03/16 02:31:56;;;;;;;22.90;11.33;;;1.40;99.90;;;;;;5104683;28;20547;-81
2022/03/16 02:34:23;;;;;;;22.63;11.23;;;1.50;99.90;;;;;;5093672;28;20192;-80
2022/03/16 02:36:48;;;;;;;23.13;10.63;;;1.50;99.90;;;;;;5095342;28;20177;-79
2022/03/16 02:39:14;;;;;;;19.83;10.33;;;1.40;99.90;;;;;;5103940;28;20558;-79
2022/03/16 02:41:39;;;;;;;17.60;9.70;;;1.30;99.90;;;;;;5093495;28;20227;-79
2022/03/16 02:44:05;;;;;;;18.00;10.70;;;1.30;99.90;;;;;;5094562;28;20212;-79
2022/03/16 02:46:31;;;;;;;27.20;10.73;;;1.20;99.90;;;;;;5106292;28;20693;-82
2022/03/16 02:48:56;;;;;;;28.70;10.73;;;1.10;99.90;;;;;;5092715;28;20251;-81
2022/03/16 02:51:23;;;;;;;25.47;11.80;;;1.00;99.90;;;;;;5096324;28;20267;-80
2022/03/16 02:53:49;;;;;;;21.33;11.43;;;1.00;99.90;;;;;;5092897;28;20205;-80
2022/03/16 02:56:14;;;;;;;30.00;11.83;;;0.90;99.90;;;;;;5092899;28;20199;-81
2022/03/16 02:58:40;;;;;;;31.07;11.87;;;0.90;99.90;;;;;;5094929;28;20654;-80
2022/03/16 03:01:05;;;;;;;23.67;11.97;;;0.90;99.90;;;;;;5106078;28;20202;-80
2022/03/16 03:03:31;;;;;;;18.37;10.57;;;0.80;99.90;;;;;;5096239;28;20208;-80
2022/03/16 03:05:57;;;;;;;38.83;12.40;;;0.80;99.90;;;;;;5095660;28;20183;-79
2022/03/16 03:08:22;;;;;;;24.73;11.53;;;0.70;99.90;;;;;;5109485;28;20191;-81
2022/03/16 03:10:48;;;;;;;18.87;11.20;;;0.80;99.90;;;;;;5107608;28;20194;-80
2022/03/16 03:13:14;;;;;;;17.93;11.67;;;0.70;99.90;;;;;;5092158;28;20292;-80
2022/03/16 03:15:41;;;;;;;27.93;11.60;;;0.70;99.90;;;;;;5107089;28;20264;-81
2022/03/16 03:18:07;;;;;;;17.23;10.87;;;0.60;99.90;;;;;;5107315;28;20191;-79
2022/03/16 03:20:32;;;;;;;22.60;11.40;;;0.60;99.90;;;;;;5105428;28;20184;-79
2022/03/16 03:22:58;;;;;;;21.20;11.10;;;0.60;99.90;;;;;;5115541;28;20212;-79
2022/03/16 03:25:24;;;;;;;15.10;10.40;;;0.60;99.90;;;;;;5128418;28;20206;-81
2022/03/16 03:27:49;;;;;;;23.30;11.77;;;0.60;99.90;;;;;;5102455;28;20200;-81
2022/03/16 03:30:15;;;;;;;20.73;11.07;;;0.60;99.90;;;;;;5093345;28;20960;-82
2022/03/16 03:32:41;;;;;;;26.70;11.47;;;0.70;99.90;;;;;;5094543;28;20689;-82
2022/03/16 03:35:07;;;;;;;26.90;11.80;;;0.80;99.90;;;;;;5098831;28;20647;-79
2022/03/16 03:37:33;;;;;;;22.90;12.23;;;0.80;99.90;;;;;;5091430;28;20229;-81
2022/03/16 03:39:59;;;;;;;27.20;11.87;;;0.80;99.90;;;;;;5093164;28;20192;-79
2022/03/16 03:42:25;;;;;;;20.57;10.97;;;0.90;99.90;;;;;;5103977;28;20215;-80
2022/03/16 03:44:50;;;;;;;16.33;10.60;;;0.90;99.90;;;;;;5092978;28;20201;-79
2022/03/16 03:47:16;;;;;;;28.63;11.43;;;1.00;99.90;;;;;;5117007;28;20671;-80
2022/03/16 03:49:42;;;;;;;24.60;11.47;;;0.90;99.90;;;;;;5116486;28;20192;-83
2022/03/16 03:52:09;;;;;;;29.47;10.80;;;0.90;99.90;;;;;;5106985;28;20204;-81
2022/03/16 03:54:35;;;;;;;28.97;10.97;;;0.80;99.90;;;;;;5114095;28;20874;-83
2022/03/16 03:57:01;;;;;;;24.30;10.57;;;0.70;99.90;;;;;;5114503;28;20216;-80
2022/03/16 03:59:27;;;;;;;15.43;10.70;;;0.80;99.90;;;;;;5095447;28;20193;-80
2022/03/16 04:01:52;;;;;;;16.07;10.63;;;0.80;99.90;;;;;;5095882;28;20199;-82
2022/03/16 04:04:19;;;;;;;16.80;10.90;;;0.70;99.90;;;;;;5101627;28;20228;-82
2022/03/16 04:06:45;;;;;;;17.80;10.67;;;0.70;99.90;;;;;;5098887;28;20658;-82
2022/03/16 04:09:11;;;;;;;17.43;10.30;;;0.70;99.90;;;;;;5100838;28;20349;-81
2022/03/16 04:11:37;;;;;;;17.73;10.90;;;0.50;99.90;;;;;;5086608;28;20249;-81
2022/03/16 04:14:03;;;;;;;20.80;10.93;;;0.40;99.90;;;;;;5086188;28;20991;-81
2022/03/16 04:16:28;;;;;;;22.80;11.27;;;0.30;99.90;;;;;;5079517;28;20759;-80
2022/03/16 04:18:54;;;;;;;15.40;10.97;;;0.30;99.90;;;;;;5098837;28;20180;-79
2022/03/16 04:21:20;;;;;;;17.77;11.57;;;0.20;99.90;;;;;;5095925;28;20207;-82
2022/03/16 04:23:46;;;;;;;19.87;12.00;;;0.30;99.90;;;;;;5098790;28;20586;-81
2022/03/16 04:26:12;;;;;;;33.43;11.87;;;0.20;99.90;;;;;;5080116;28;20177;-82
2022/03/16 04:28:37;;;;;;;17.97;12.20;;;0.20;99.90;;;;;;5086159;28;20275;-82
2022/03/16 04:31:03;;;;;;;18.50;11.80;;;0.20;99.90;;;;;;5086113;28;20226;-81
2022/03/16 04:33:29;;;;;;;23.07;12.07;;;0.20;99.90;;;;;;5086192;28;20215;-82
2022/03/16 04:35:55;;;;;;;19.03;11.27;;;0.10;99.90;;;;;;5099987;28;20181;-83
2022/03/16 04:38:21;;;;;;;17.77;11.47;;;0.10;99.90;;;;;;5099077;28;20189;-83
2022/03/16 04:40:47;;;;;;;38.23;12.37;;;0.10;99.90;;;;;;5087486;28;20180;-81
2022/03/16 04:43:14;;;;;;;37.23;12.53;;;0.10;99.90;;;;;;5087563;28;20209;-83
2022/03/16 04:45:40;;;;;;;19.23;11.30;;;0.10;99.90;;;;;;5086735;28;20271;-82
2022/03/16 04:48:11;;;;;;;18.70;12.10;;;0.00;99.90;;;;;;5099811;28;20244;-81
2022/03/16 04:50:38;;;;;;;21.50;12.70;;;-0.10;99.90;;;;;;5099336;28;20225;-82
2022/03/16 04:53:04;;;;;;;16.50;12.03;;;-0.20;99.90;;;;;;5081998;28;20201;-81
2022/03/16 04:55:30;;;;;;;15.80;11.37;;;-0.20;99.90;;;;;;5106757;28;20180;-81
2022/03/16 04:57:56;;;;;;;17.00;12.30;;;-0.30;99.90;;;;;;5084366;28;20173;-81
2022/03/16 05:00:24;;;;;;;17.93;12.07;;;-0.30;99.90;;;;;;5098801;28;20255;-81
2022/03/16 05:02:49;;;;;;;22.40;12.40;;;-0.30;99.90;;;;;;5098128;28;20200;-82
2022/03/16 05:05:15;;;;;;;22.10;12.27;;;-0.40;99.90;;;;;;5104312;28;20176;-81
2022/03/16 05:07:40;;;;;;;23.53;12.20;;;-0.50;99.90;;;;;;5088524;28;20192;-81
2022/03/16 05:10:07;;;;;;;21.50;12.33;;;-0.60;99.90;;;;;;5100204;28;20229;-82
2022/03/16 05:12:41;;;;;;;28.00;13.47;;;-0.60;99.90;;;;;;5087575;28;20188;-79
2022/03/16 05:15:10;;;;;;;31.23;12.30;;;-0.60;99.90;;;;;;5098448;28;20176;-82
2022/03/16 05:17:36;;;;;;;31.33;12.80;;;-0.50;99.90;;;;;;5096545;28;20262;-81
2022/03/16 05:20:03;;;;;;;24.23;13.03;;;-0.60;99.90;;;;;;5083102;28;20557;-80
2022/03/16 05:22:28;;;;;;;28.90;12.83;;;-0.60;99.90;;;;;;5084305;28;20205;-80
2022/03/16 05:24:54;;;;;;;18.83;12.33;;;-0.60;99.90;;;;;;5083057;28;21191;-79
2022/03/16 05:27:20;;;;;;;28.60;12.73;;;-0.60;99.90;;;;;;5095432;28;20181;-79
2022/03/16 05:29:47;;;;;;;20.73;12.60;;;-0.50;99.90;;;;;;5084008;28;20226;-79
2022/03/16 05:32:13;;;;;;;16.73;11.77;;;-0.40;99.90;;;;;;5095081;28;20200;-81
2022/03/16 05:34:38;;;;;;;18.20;11.60;;;-0.50;99.90;;;;;;5077616;28;20187;-80
2022/03/16 05:37:05;;;;;;;16.17;11.07;;;-0.40;99.90;;;;;;5080024;28;20184;-80
2022/03/16 05:39:31;;;;;;;17.27;11.13;;;-0.40;99.90;;;;;;5076124;28;20219;-80
2022/03/16 05:41:56;;;;;;;20.53;12.03;;;-0.30;99.90;;;;;;5092232;28;20224;-79
2022/03/16 05:44:22;;;;;;;19.30;11.97;;;-0.20;99.90;;;;;;5075161;28;20217;-79
2022/03/16 05:46:48;;;;;;;20.00;13.17;;;-0.10;99.90;;;;;;5078676;28;20184;-81
2022/03/16 05:49:13;;;;;;;19.23;12.30;;;0.10;99.90;;;;;;5090237;28;20191;-78
2022/03/16 05:51:39;;;;;;;18.87;12.43;;;0.20;99.90;;;;;;5090308;28;20215;-83
2022/03/16 05:54:05;;;;;;;17.40;11.97;;;0.20;99.90;;;;;;5082221;28;20204;-79
2022/03/16 05:56:31;;;;;;;17.73;11.80;;;0.30;99.90;;;;;;5092705;28;20230;-82
2022/03/16 05:58:57;;;;;;;18.67;12.70;;;0.30;99.90;;;;;;5087066;28;20658;-83
2022/03/16 06:01:23;;;;;;;17.20;12.23;;;0.40;99.90;;;;;;5098122;28;20245;-80
2022/03/16 06:03:49;;;;;;;17.73;12.80;;;0.50;99.90;;;;;;5091040;28;20250;-80
2022/03/16 06:06:15;;;;;;;18.50;12.87;;;0.50;99.90;;;;;;5100743;28;20290;-79
2022/03/16 06:08:41;;;;;;;18.13;12.67;;;0.60;99.90;;;;;;5089452;28;20570;-81
2022/03/16 06:11:06;;;;;;;21.60;13.27;;;0.70;99.90;;;;;;5088814;28;20184;-79
2022/03/16 06:13:32;;;;;;;19.13;12.60;;;0.80;99.90;;;;;;5088594;28;20208;-80
2022/03/16 06:15:58;;;;;;;17.17;12.00;;;0.70;99.90;;;;;;5086475;28;20188;-81
2022/03/16 06:18:23;;;;;;;16.63;12.07;;;0.80;99.90;;;;;;5087919;28;20195;-81
2022/03/16 06:20:49;;;;;;;17.50;12.10;;;0.80;99.90;;;;;;5098762;28;20184;-82
2022/03/16 06:23:14;;;;;;;18.27;12.10;;;0.90;99.90;;;;;;5087696;28;20309;-81
2022/03/16 06:25:40;;;;;;;18.53;12.33;;;1.00;99.90;;;;;;5096626;28;20196;-80
2022/03/16 06:28:06;;;;;;;15.97;12.10;;;1.10;99.90;;;;;;5096991;28;20177;-81
2022/03/16 06:30:32;;;;;;;20.70;12.37;;;1.10;99.90;;;;;;5094495;28;20187;-81
2022/03/16 06:32:57;;;;;;;19.17;12.27;;;1.20;99.90;;;;;;5087473;28;20216;-78
2022/03/16 06:35:23;;;;;;;16.27;11.70;;;1.20;99.90;;;;;;5087755;28;20204;-81
2022/03/16 06:37:49;;;;;;;13.73;11.20;;;1.30;99.90;;;;;;5088205;28;21052;-79
2022/03/16 06:40:15;;;;;;;15.37;10.93;;;1.50;99.90;;;;;;5085990;28;20189;-82
2022/03/16 06:42:55;;;;;;;15.33;10.97;;;1.50;99.90;;;;;;5086873;28;20717;-81
2022/03/16 06:45:22;;;;;;;16.03;11.90;;;1.60;99.90;;;;;;5087739;28;20211;-81
2022/03/16 06:47:48;;;;;;;15.50;11.30;;;1.80;99.90;;;;;;5086524;28;20286;-81
2022/03/16 06:50:14;;;;;;;14.37;11.03;;;1.90;99.90;;;;;;5100693;28;20240;-80
2022/03/16 06:52:40;;;;;;;14.10;10.73;;;2.00;99.90;;;;;;5093453;28;21148;-80
2022/03/16 06:55:08;;;;;;;14.57;10.73;;;2.20;99.90;;;;;;5086439;28;20785;-80
2022/03/16 06:57:33;;;;;;;15.40;11.43;;;2.40;99.90;;;;;;5084709;28;20308;-81
2022/03/16 06:59:59;;;;;;;15.33;11.83;;;2.70;99.90;;;;;;5084357;28;20251;-79
2022/03/16 07:02:24;;;;;;;14.50;11.33;;;2.90;99.90;;;;;;5083171;28;20200;-81
2022/03/16 07:04:50;;;;;;;12.13;10.20;;;3.10;99.90;;;;;;5084926;28;20270;-81
2022/03/16 07:07:15;;;;;;;13.23;10.73;;;3.20;99.90;;;;;;5084406;28;20181;-81
2022/03/16 07:09:41;;;;;;;11.17;9.97;;;3.30;99.90;;;;;;5099221;28;20184;-81
2022/03/16 07:12:07;;;;;;;12.57;9.77;;;3.30;99.90;;;;;;5090376;28;20625;-80
2022/03/16 07:14:34;;;;;;;11.90;9.97;;;3.30;99.90;;;;;;5101029;28;20180;-83
2022/03/16 07:17:01;;;;;;;12.83;9.93;;;3.20;99.90;;;;;;5102098;28;20275;-83
2022/03/16 07:19:26;;;;;;;12.10;9.40;;;3.20;99.90;;;;;;5101237;28;20191;-81
2022/03/16 07:21:52;;;;;;;13.63;10.30;;;3.20;99.90;;;;;;5086837;28;20185;-79
2022/03/16 07:24:17;;;;;;;11.13;9.57;;;3.20;99.90;;;;;;5088518;28;20552;-81
2022/03/16 07:26:43;;;;;;;11.13;9.27;;;3.30;99.90;;;;;;5089090;28;20612;-82
2022/03/16 07:29:09;;;;;;;12.03;9.60;;;3.40;99.90;;;;;;5089525;28;20191;-81
2022/03/16 07:31:35;;;;;;;13.93;10.10;;;3.50;99.90;;;;;;5088096;28;20702;-80
2022/03/16 07:34:01;;;;;;;10.90;9.53;;;3.60;99.90;;;;;;5088240;28;20203;-80
2022/03/16 07:36:27;;;;;;;14.70;10.90;;;3.70;99.90;;;;;;5088392;28;20269;-83
2022/03/16 07:38:53;;;;;;;11.93;9.77;;;3.80;99.90;;;;;;5100837;28;20268;-81
2022/03/16 07:41:19;;;;;;;13.23;10.50;;;3.90;99.90;;;;;;5086247;28;20185;-81
2022/03/16 07:43:44;;;;;;;12.53;10.13;;;4.10;99.90;;;;;;5085725;28;20216;-78
2022/03/16 07:46:10;;;;;;;13.20;10.77;;;4.20;99.90;;;;;;5086025;28;20180;-80
2022/03/16 07:48:37;;;;;;;13.67;9.50;;;4.30;99.90;;;;;;5088138;28;20211;-79
2022/03/16 07:51:04;;;;;;;11.53;9.73;;;4.50;99.90;;;;;;5097906;28;20622;-82
2022/03/16 07:53:29;;;;;;;13.03;10.23;;;4.70;99.90;;;;;;5097971;28;20261;-82
2022/03/16 07:55:57;;;;;;;13.87;10.20;;;4.90;99.90;;;;;;5089297;28;20188;-80
2022/03/16 07:58:22;;;;;;;14.73;11.33;;;5.10;99.90;;;;;;5100532;28;20645;-83
2022/03/16 08:00:48;;;;;;;17.23;11.40;;;5.30;99.90;;;;;;5098609;28;20288;-84
2022/03/16 08:03:14;;;;;;;19.33;12.27;;;5.60;99.90;;;;;;5088492;28;20576;-82
2022/03/16 08:05:40;;;;;;;17.67;11.83;;;5.70;99.90;;;;;;5098675;28;20203;-82
2022/03/16 08:08:06;;;;;;;17.63;12.30;;;6.00;99.90;;;;;;5090843;28;20207;-79
2022/03/16 08:10:32;;;;;;;19.00;12.50;;;6.20;99.90;;;;;;5088296;28;20628;-79
2022/03/16 08:12:57;;;;;;;24.43;16.00;;;6.50;99.90;;;;;;5087955;28;20204;-81
2022/03/16 08:15:24;;;;;;;22.33;14.10;;;6.80;99.90;;;;;;5087109;28;20181;-82
2022/03/16 08:17:50;;;;;;;83.97;43.03;;;7.00;99.90;;;;;;5100917;28;20196;-82
2022/03/16 08:20:15;;;;;;;25.10;16.53;;;7.30;99.90;;;;;;5086920;28;20184;-83
2022/03/16 08:22:41;;;;;;;18.43;11.63;;;7.50;99.90;;;;;;5102044;28;20224;-81
2022/03/16 08:25:10;;;;;;;22.33;14.40;;;7.60;99.90;;;;;;5089272;28;20234;-80
2022/03/16 08:27:37;;;;;;;18.00;11.70;;;7.50;99.90;;;;;;5088046;28;20221;-85
2022/03/16 08:30:05;;;;;;;24.23;17.00;;;7.70;99.90;;;;;;5098968;28;20177;-83
2022/03/16 08:32:30;;;;;;;21.70;15.70;;;7.70;99.90;;;;;;5087038;28;20204;-81
2022/03/16 08:34:56;;;;;;;23.93;16.20;;;7.80;99.90;;;;;;5085112;28;20180;-84
2022/03/16 08:37:21;;;;;;;17.87;13.30;;;7.80;99.90;;;;;;5086343;28;20219;-80
2022/03/16 08:39:48;;;;;;;18.57;11.90;;;8.00;99.90;;;;;;5087352;28;20184;-80
2022/03/16 08:42:14;;;;;;;25.20;16.50;;;8.00;99.90;;;;;;5097784;28;20199;-84
2022/03/16 08:44:42;;;;;;;28.17;18.93;;;8.10;99.90;;;;;;5087595;28;20694;-80
2022/03/16 08:47:10;;;;;;;32.47;21.33;;;8.20;99.90;;;;;;5087317;28;20651;-82
2022/03/16 08:49:37;;;;;;;40.63;25.87;;;8.40;99.90;;;;;;5096745;28;20189;-81
2022/03/16 08:52:05;;;;;;;16.70;11.60;;;8.50;99.90;;;;;;5097963;28;20254;-80
2022/03/16 08:54:30;;;;;;;22.70;15.77;;;8.70;99.90;;;;;;5082861;28;20189;-80
2022/03/16 08:56:56;;;;;;;18.33;11.50;;;8.80;99.90;;;;;;5104439;28;20185;-81
2022/03/16 08:59:23;;;;;;;31.87;20.00;;;8.90;99.90;;;;;;5085643;28;20714;-83
2022/03/16 09:01:49;;;;;;;58.83;35.77;;;8.80;99.90;;;;;;5082071;28;20722;-80
2022/03/16 09:04:15;;;;;;;28.50;18.13;;;8.90;99.90;;;;;;5084255;28;20254;-82
2022/03/16 09:06:41;;;;;;;26.47;15.30;;;9.10;99.90;;;;;;5084949;28;20181;-81
2022/03/16 09:09:06;;;;;;;17.47;11.40;;;9.40;99.90;;;;;;5099755;28;20186;-83
2022/03/16 09:11:34;;;;;;;30.57;20.23;;;9.30;99.90;;;;;;5087578;28;20200;-84
2022/03/16 09:14:00;;;;;;;24.30;16.33;;;9.40;99.90;;;;;;5064998;23;20227;-73
2022/03/16 09:16:27;;;;;;;18.37;11.30;;;9.60;99.90;;;;;;5020031;28;20204;-73
2022/03/16 09:18:53;;;;;;;16.77;10.17;;;9.70;99.90;;;;;;5009666;28;20187;-72
2022/03/16 09:21:19;;;;;;;18.23;11.43;;;9.80;99.90;;;;;;5008413;28;20180;-74
2022/03/16 09:23:45;;;;;;;15.93;10.10;;;9.80;99.90;;;;;;5002690;28;20246;-73
2022/03/16 09:26:25;;;;;;;15.27;10.13;;;9.90;99.90;;;;;;5005544;28;20614;-73
2022/03/16 09:28:51;;;;;;;17.50;11.17;;;10.00;99.90;;;;;;4995400;28;20190;-73
2022/03/16 09:31:17;;;;;;;14.20;8.90;;;10.10;99.90;;;;;;4997453;28;20191;-73
2022/03/16 09:33:43;;;;;;;16.20;12.40;;;9.90;99.90;;;;;;5003045;28;20196;-73
2022/03/16 09:36:09;;;;;;;14.93;8.57;;;10.00;99.90;;;;;;5002301;28;20219;-72
2022/03/16 09:38:35;;;;;;;14.43;9.07;;;10.20;99.90;;;;;;5002223;28;20771;-73
2022/03/16 09:41:02;;;;;;;12.77;8.90;;;10.50;99.90;;;;;;5003146;28;20294;-72
2022/03/16 09:43:35;;;;;;;13.23;8.97;;;11.00;99.90;;;;;;4991662;28;20218;-73
2022/03/16 09:46:12;;;;;;;13.07;8.27;;;11.00;99.90;;;;;;5024927;27;20289;-73
2022/03/16 09:48:39;;;;;;;14.17;8.40;;;10.80;99.90;;;;;;4990509;28;20278;-73
2022/03/16 09:51:07;;;;;;;13.33;8.83;;;10.80;99.90;;;;;;4999887;28;20187;-74
2022/03/16 09:53:33;;;;;;;13.43;8.17;;;10.80;99.90;;;;;;4997075;28;20194;-73
2022/03/16 09:55:59;;;;;;;14.73;8.27;;;11.10;99.90;;;;;;5001871;28;20207;-74
2022/03/16 09:58:25;;;;;;;12.93;8.77;;;11.30;99.90;;;;;;4994038;28;20685;-74
2022/03/16 10:00:55;;;;;;;18.27;9.90;;;11.60;99.90;;;;;;5004073;28;20199;-73
2022/03/16 10:03:28;;;;;;;11.50;8.17;;;11.50;99.90;;;;;;5004473;28;20209;-72
2022/03/16 10:15:30;;;;;;;13.03;7.70;;;11.50;99.90;;;;;;5037271;28;20334;-72
2022/03/16 10:17:55;;;;;;;12.77;8.33;;;11.50;99.90;;;;;;5007155;28;20669;-72
2022/03/16 10:20:43;;;;;;;14.27;8.90;;;11.40;99.90;;;;;;5009035;28;20192;-70
2022/03/16 10:26:31;;;;;;;16.67;9.47;;;11.60;99.90;;;;;;5091677;22;20252;-82
2022/03/16 10:29:03;;;;;;;13.60;9.07;;;11.40;99.90;;;;;;5085072;28;20879;-81
2022/03/16 10:31:29;;;;;;;15.90;9.27;;;11.40;99.90;;;;;;5090648;28;20184;-83
2022/03/16 10:33:55;;;;;;;18.07;12.80;;;11.50;99.90;;;;;;5064477;28;20197;-83
2022/03/16 10:36:22;;;;;;;14.30;9.20;;;11.60;99.90;;;;;;5076662;28;20181;-82
2022/03/16 10:38:54;;;;;;;14.47;9.27;;;11.70;99.90;;;;;;5074075;28;20187;-82
2022/03/16 10:46:57;;;;;;;12.93;9.77;;;11.90;99.90;;;;;;5079299;28;20555;-82
2022/03/16 10:49:23;;;;;;;17.90;13.53;;;12.00;99.90;;;;;;5068505;28;20181;-82
2022/03/16 10:52:07;;;;;;;13.67;10.17;;;12.00;99.90;;;;;;5079074;28;20553;-83
2022/03/16 10:54:35;;;;;;;14.50;10.13;;;12.20;99.90;;;;;;5067536;28;20284;-82
2022/03/16 10:57:05;;;;;;;14.68;9.88;;;12.30;99.90;;;;;;5065897;28;20188;-82
2022/03/16 10:59:32;;;;;;;14.43;10.52;;;12.30;99.90;;;;;;5066572;28;20219;-83
2022/03/16 11:02:06;;;;;;;15.75;10.20;;;12.30;99.90;;;;;;5078604;28;20186;-82
2022/03/16 11:04:34;;;;;;;14.63;10.63;;;12.30;99.90;;;;;;5065877;28;20208;-82
2022/03/16 11:07:01;;;;;;;13.85;10.13;;;12.00;99.90;;;;;;5078237;28;20185;-82
2022/03/16 11:09:27;;;;;;;16.05;11.25;;;11.90;99.90;;;;;;5066693;28;20982;-82
2022/03/16 11:14:40;;;;;;;14.88;10.18;;;12.30;99.90;;;;;;5077967;28;20604;-80
2022/03/16 11:17:06;;;;;;;16.15;11.90;;;12.40;99.90;;;;;;5077631;28;20195;-81
2022/03/16 11:19:33;;;;;;;17.75;10.95;;;12.30;99.90;;;;;;5068256;28;20259;-81
2022/03/16 11:22:11;;;;;;;17.10;11.60;;;12.50;99.90;;;;;;5068688;28;20181;-81
2022/03/16 11:24:42;;;;;;;16.60;11.25;;;12.60;99.90;;;;;;5077845;28;20209;-82
2022/03/16 11:27:16;;;;;;;16.50;10.40;;;12.70;99.90;;;;;;5067827;28;20575;-83
2022/03/16 11:30:07;;;;;;;15.65;10.75;;;12.90;99.90;;;;;;5067120;28;20549;-84
2022/03/16 11:32:41;;;;;;;15.73;10.18;;;12.70;99.90;;;;;;5077022;28;20208;-85
2022/03/16 11:35:09;;;;;;;16.52;10.50;;;12.80;99.90;;;;;;5076070;28;20178;-84
2022/03/16 11:37:38;;;;;;;14.95;9.77;;;12.70;99.90;;;;;;5063726;28;20193;-82
2022/03/16 11:40:13;;;;;;;16.83;10.23;;;12.50;99.90;;;;;;5076597;28;20209;-81
2022/03/16 11:43:04;;;;;;;18.88;12.65;;;12.60;99.90;;;;;;5065040;28;20767;-81
2022/03/16 11:45:41;;;;;;;18.30;10.50;;;12.60;99.90;;;;;;5073684;28;20189;-81
2022/03/16 11:48:31;;;;;;;14.88;10.93;;;12.70;99.90;;;;;;5063499;28;20203;-81
2022/03/16 11:51:09;;;;;;;19.63;11.40;;;12.70;99.90;;;;;;5065769;28;20617;-84
2022/03/16 11:53:47;;;;;;;15.38;10.40;;;12.90;99.90;;;;;;5065715;28;20196;-80
2022/03/16 11:56:20;;;;;;;15.52;10.05;;;13.00;99.90;;;;;;5075884;28;20181;-81
2022/03/16 11:58:47;;;;;;;15.25;10.25;;;13.00;99.90;;;;;;5065173;28;20185;-81
2022/03/16 12:01:29;;;;;;;15.75;9.82;;;12.90;99.90;;;;;;5063628;28;20186;-81
2022/03/16 12:04:14;;;;;;;15.82;10.00;;;13.00;99.90;;;;;;5060202;28;20209;-81
2022/03/16 12:07:05;;;;;;;13.75;9.98;;;12.90;99.90;;;;;;5067189;28;20187;-83
2022/03/16 12:09:41;;;;;;;13.20;10.27;;;12.80;99.90;;;;;;5065130;28;20817;-82
2022/03/16 12:15:12;;;;;;;13.77;9.38;;;12.90;99.90;;;;;;5073459;28;20513;-81
2022/03/16 12:17:39;;;;;;;14.23;9.68;;;13.10;99.90;;;;;;5065532;28;20221;-81
2022/03/16 12:20:16;;;;;;;14.70;10.18;;;12.90;99.90;;;;;;5063113;28;20189;-83
2022/03/16 12:22:46;;;;;;;15.27;9.57;;;13.00;99.90;;;;;;5072889;28;20830;-80
2022/03/16 12:25:27;;;;;;;13.60;9.02;;;13.10;99.90;;;;;;5067941;28;20220;-82
2022/03/16 12:30:52;;;;;;;14.23;8.70;;;13.00;99.90;;;;;;5076353;28;20268;-81
2022/03/16 12:33:22;;;;;;;15.07;10.45;;;13.20;99.90;;;;;;5063550;28;20265;-81
2022/03/16 12:35:49;;;;;;;14.57;9.55;;;13.20;99.90;;;;;;5063926;28;20629;-81
2022/03/16 12:38:16;;;;;;;15.35;9.30;;;13.20;99.90;;;;;;5061420;28;20215;-82
2022/03/16 12:43:27;;;;;;;20.77;11.70;;;13.30;99.90;;;;;;5071346;28;20320;-83
2022/03/16 12:46:05;;;;;;;14.02;8.85;;;13.40;99.90;;;;;;5064264;28;20212;-81
2022/03/16 12:48:35;;;;;;;12.85;8.25;;;13.60;99.90;;;;;;5062541;28;20511;-82
2022/03/16 12:51:01;;;;;;;13.90;8.40;;;13.60;99.90;;;;;;5073118;28;20570;-81
2022/03/16 12:53:34;;;;;;;16.52;9.38;;;13.80;99.90;;;;;;5061160;28;20872;-79
2022/03/16 12:55:59;;;;;;;20.95;12.40;;;13.80;99.90;;;;;;5061880;28;20192;-82
2022/03/16 12:58:27;;;;;;;16.38;10.15;;;13.70;99.90;;;;;;5070002;28;20182;-81
2022/03/16 13:00:59;;;;;;;16.90;11.05;;;13.80;99.90;;;;;;5063406;28;20193;-83
2022/03/16 13:03:25;;;;;;;16.35;10.63;;;13.80;99.90;;;;;;5063979;28;20201;-83
2022/03/16 13:05:52;;;;;;;13.77;8.85;;;13.80;99.90;;;;;;5062448;28;20188;-82
2022/03/16 13:08:18;;;;;;;14.48;8.45;;;13.90;99.90;;;;;;5072869;28;20212;-82
2022/03/16 13:13:28;;;;;;;13.43;8.60;;;13.90;99.90;;;;;;5072496;28;20212;-82